createdAt,value
2023-05-10T00:00:04.731Z,252.37
2023-05-10T00:01:04.792Z,243.84
2023-05-10T00:02:04.805Z,239.09
2023-05-10T00:03:04.945Z,233.92
2023-05-10T00:04:04.811Z,231.21
2023-05-10T00:05:04.804Z,228.75
2023-05-10T00:06:04.851Z,228.36
2023-05-10T00:07:04.840Z,230.58
2023-05-10T00:08:04.872Z,230.17
2023-05-10T00:09:04.891Z,232.42
2023-05-10T00:10:04.896Z,233.15
2023-05-10T00:11:04.896Z,231.71
2023-05-10T00:12:04.995Z,229.03
2023-05-10T00:13:04.950Z,227.22
2023-05-10T00:14:05.058Z,227.02
2023-05-10T00:15:04.966Z,237.47
2023-05-10T00:16:05.189Z,241.86
2023-05-10T00:17:05.042Z,250.06
2023-05-10T00:18:05.153Z,248.27
2023-05-10T00:19:05.542Z,247.70
2023-05-10T00:20:05.029Z,241.82
2023-05-10T00:21:05.077Z,236.57
2023-05-10T00:22:05.045Z,230.76
2023-05-10T00:23:05.086Z,226.47
2023-05-10T00:24:05.074Z,225.68
2023-05-10T00:25:05.155Z,226.88
2023-05-10T00:26:05.259Z,225.73
2023-05-10T00:27:05.125Z,226.76
2023-05-10T00:28:05.171Z,226.42
2023-05-10T00:29:05.204Z,224.94
2023-05-10T00:30:05.238Z,223.33
2023-05-10T00:31:05.247Z,223.76
2023-05-10T00:32:05.285Z,223.89
2023-05-10T00:33:05.326Z,223.03
2023-05-10T00:34:05.374Z,223.22
2023-05-10T00:35:05.283Z,223.43
2023-05-10T00:36:05.294Z,226.74
2023-05-10T00:37:05.317Z,231.70
2023-05-10T00:38:05.319Z,233.78
2023-05-10T00:39:05.308Z,235.15
2023-05-10T00:40:05.363Z,234.75
2023-05-10T00:41:06.476Z,234.09
2023-05-10T00:42:05.412Z,230.36
2023-05-10T00:43:05.502Z,226.97
2023-05-10T00:44:05.442Z,225.66
2023-05-10T00:45:05.453Z,224.57
2023-05-10T00:46:05.490Z,222.97
2023-05-10T00:47:05.482Z,224.27
2023-05-10T00:48:05.575Z,222.65
2023-05-10T00:49:05.475Z,222.01
2023-05-10T00:50:05.497Z,221.25
2023-05-10T00:51:05.553Z,221.98
2023-05-10T00:52:05.482Z,222.12
2023-05-10T00:53:05.496Z,220.78
2023-05-10T00:54:05.505Z,222.62
2023-05-10T00:55:05.521Z,231.42
2023-05-10T00:56:05.789Z,235.65
2023-05-10T00:57:05.692Z,231.29
2023-05-10T00:58:05.599Z,226.81
2023-05-10T00:59:05.630Z,226.43
2023-05-10T01:00:05.649Z,225.21
2023-05-10T01:01:05.660Z,224.31
2023-05-10T01:02:05.686Z,221.75
2023-05-10T01:03:05.722Z,223.33
2023-05-10T01:04:05.676Z,223.74
2023-05-10T01:05:05.707Z,221.23
2023-05-10T01:06:05.659Z,222.34
2023-05-10T01:07:05.899Z,222.68
2023-05-10T01:08:05.698Z,223.32
2023-05-10T01:09:05.690Z,223.20
2023-05-10T01:10:05.727Z,222.91
2023-05-10T01:11:05.709Z,223.57
2023-05-10T01:12:05.804Z,225.45
2023-05-10T01:13:05.841Z,226.56
2023-05-10T01:14:05.825Z,225.53
2023-05-10T01:15:05.825Z,226.42
2023-05-10T01:16:05.870Z,228.88
2023-05-10T01:17:05.878Z,229.90
2023-05-10T01:18:05.868Z,229.95
2023-05-10T01:19:05.910Z,231.93
2023-05-10T01:20:05.956Z,228.30
2023-05-10T01:21:05.972Z,228.29
2023-05-10T01:22:05.981Z,228.33
2023-05-10T01:23:06.049Z,227.70
2023-05-10T01:24:06.025Z,223.36
2023-05-10T01:25:06.091Z,224.64
2023-05-10T01:26:06.108Z,226.59
2023-05-10T01:27:06.157Z,226.32
2023-05-10T01:28:06.156Z,227.09
2023-05-10T01:29:06.178Z,229.49
2023-05-10T01:30:15.589Z,230.38
2023-05-10T01:31:07.284Z,230.42
2023-05-10T01:32:06.215Z,229.71
2023-05-10T01:33:06.241Z,229.32
2023-05-10T01:34:06.163Z,230.73
2023-05-10T01:35:06.183Z,232.44
2023-05-10T01:36:06.175Z,234.75
2023-05-10T01:37:06.150Z,236.85
2023-05-10T01:38:06.138Z,237.64
2023-05-10T01:39:06.127Z,239.08
2023-05-10T01:40:06.161Z,238.82
2023-05-10T01:41:06.150Z,234.03
2023-05-10T01:42:06.235Z,232.32
2023-05-10T01:43:06.347Z,234.58
2023-05-10T01:44:06.333Z,236.48
2023-05-10T01:45:06.410Z,240.42
2023-05-10T01:46:06.445Z,241.65
2023-05-10T01:47:06.507Z,240.76
2023-05-10T01:48:06.674Z,239.78
2023-05-10T01:49:06.614Z,242.27
2023-05-10T01:50:08.009Z,241.95
2023-05-10T01:51:06.726Z,241.45
2023-05-10T01:52:06.792Z,240.97
2023-05-10T01:53:06.842Z,241.56
2023-05-10T01:54:06.896Z,244.34
2023-05-10T01:55:06.935Z,244.05
2023-05-10T01:56:06.996Z,242.58
2023-05-10T01:57:07.049Z,243.62
2023-05-10T01:58:07.087Z,243.97
2023-05-10T01:59:07.119Z,239.65
2023-05-10T02:00:07.163Z,240.39
2023-05-10T02:01:07.265Z,239.23
2023-05-10T02:02:07.267Z,240.97
2023-05-10T02:03:07.417Z,242.90
2023-05-10T02:04:07.382Z,243.66
2023-05-10T02:05:07.444Z,243.52
2023-05-10T02:06:07.442Z,243.83
2023-05-10T02:07:07.479Z,241.67
2023-05-10T02:08:07.568Z,238.89
2023-05-10T02:09:07.524Z,239.09
2023-05-10T02:10:07.593Z,240.50
2023-05-10T02:11:07.662Z,241.64
2023-05-10T02:12:07.678Z,244.15
2023-05-10T02:13:07.763Z,247.44
2023-05-10T02:14:07.791Z,247.16
2023-05-10T02:15:07.863Z,247.83
2023-05-10T02:16:07.923Z,245.66
2023-05-10T02:17:07.950Z,246.92
2023-05-10T02:18:08.006Z,245.97
2023-05-10T02:19:08.081Z,244.93
2023-05-10T02:20:08.049Z,243.91
2023-05-10T02:21:08.181Z,243.81
2023-05-10T02:22:08.211Z,243.57
2023-05-10T02:23:08.277Z,242.29
2023-05-10T02:24:08.292Z,236.81
2023-05-10T02:25:08.319Z,239.01
2023-05-10T02:26:08.379Z,240.12
2023-05-10T02:27:08.411Z,241.26
2023-05-10T02:28:08.492Z,240.08
2023-05-10T02:29:08.560Z,240.45
2023-05-10T02:30:08.598Z,238.86
2023-05-10T02:31:08.651Z,236.45
2023-05-10T02:32:08.751Z,236.62
2023-05-10T02:33:08.811Z,230.92
2023-05-10T02:34:08.817Z,226.58
2023-05-10T02:35:08.955Z,220.11
2023-05-10T02:36:08.934Z,220.33
2023-05-10T02:37:08.968Z,221.57
2023-05-10T02:38:09.070Z,222.63
2023-05-10T02:39:09.080Z,224.51
2023-05-10T02:40:09.088Z,225.13
2023-05-10T02:41:09.126Z,227.43
2023-05-10T02:42:09.195Z,225.76
2023-05-10T02:43:09.237Z,221.43
2023-05-10T02:44:09.309Z,220.83
2023-05-10T02:45:09.314Z,220.95
2023-05-10T02:46:09.399Z,220.94
2023-05-10T02:47:09.407Z,222.16
2023-05-10T02:48:09.499Z,224.39
2023-05-10T02:49:09.883Z,222.36
2023-05-10T02:50:09.545Z,224.05
2023-05-10T02:51:09.599Z,229.69
2023-05-10T02:52:09.614Z,231.31
2023-05-10T02:53:09.684Z,232.50
2023-05-10T02:54:09.714Z,233.92
2023-05-10T02:55:09.763Z,230.64
2023-05-10T02:56:09.848Z,230.00
2023-05-10T02:57:09.858Z,227.35
2023-05-10T02:58:09.917Z,226.60
2023-05-10T02:59:09.970Z,225.82
2023-05-10T03:00:10.029Z,226.31
2023-05-10T03:01:10.087Z,224.86
2023-05-10T03:02:10.090Z,224.45
2023-05-10T03:03:10.177Z,223.09
2023-05-10T03:04:10.193Z,223.69
2023-05-10T03:05:10.263Z,224.85
2023-05-10T03:06:10.311Z,224.35
2023-05-10T03:07:10.388Z,226.92
2023-05-10T03:08:10.442Z,229.92
2023-05-10T03:09:10.451Z,232.41
2023-05-10T03:10:10.456Z,232.41
2023-05-10T03:11:10.423Z,232.88
2023-05-10T03:12:10.428Z,233.87
2023-05-10T03:13:10.488Z,234.25
2023-05-10T03:14:10.437Z,232.99
2023-05-10T03:15:10.438Z,233.71
2023-05-10T03:16:10.555Z,232.25
2023-05-10T03:17:10.419Z,232.38
2023-05-10T03:18:10.455Z,230.27
2023-05-10T03:19:10.468Z,226.30
2023-05-10T03:20:10.392Z,227.00
2023-05-10T03:21:10.442Z,229.36
2023-05-10T03:22:10.466Z,228.74
2023-05-10T03:23:10.444Z,227.93
2023-05-10T03:24:10.392Z,227.96
2023-05-10T03:25:10.430Z,231.35
2023-05-10T03:26:10.394Z,232.35
2023-05-10T03:27:10.481Z,233.96
2023-05-10T03:28:10.466Z,235.35
2023-05-10T03:29:10.468Z,234.51
2023-05-10T03:30:10.478Z,231.30
2023-05-10T03:31:10.568Z,231.91
2023-05-10T03:32:10.502Z,231.95
2023-05-10T03:33:10.560Z,230.11
2023-05-10T03:34:10.608Z,226.56
2023-05-10T03:35:10.638Z,224.90
2023-05-10T03:36:10.644Z,226.72
2023-05-10T03:37:10.787Z,230.70
2023-05-10T03:38:10.772Z,232.44
2023-05-10T03:39:10.762Z,233.14
2023-05-10T03:40:10.817Z,230.98
2023-05-10T03:41:10.833Z,230.38
2023-05-10T03:42:10.842Z,231.04
2023-05-10T03:43:10.842Z,232.96
2023-05-10T03:44:10.855Z,232.39
2023-05-10T03:45:10.839Z,228.87
2023-05-10T03:46:10.932Z,231.23
2023-05-10T03:47:10.914Z,238.02
2023-05-10T03:48:10.983Z,240.17
2023-05-10T03:49:10.839Z,242.61
2023-05-10T03:50:10.848Z,239.05
2023-05-10T03:51:10.852Z,236.60
2023-05-10T03:52:10.855Z,232.90
2023-05-10T03:53:10.917Z,226.69
2023-05-10T03:54:10.904Z,225.25
2023-05-10T03:55:10.965Z,223.87
2023-05-10T03:56:11.033Z,223.61
2023-05-10T03:57:11.105Z,224.66
2023-05-10T03:58:11.138Z,225.13
2023-05-10T03:59:11.151Z,224.40
2023-05-10T04:00:11.259Z,221.59
2023-05-10T04:01:11.307Z,219.96
2023-05-10T04:02:11.445Z,217.95
2023-05-10T04:03:11.486Z,217.59
2023-05-10T04:04:11.570Z,215.21
2023-05-10T04:05:11.549Z,221.71
2023-05-10T04:06:11.634Z,223.90
2023-05-10T04:07:11.681Z,225.90
2023-05-10T04:08:11.775Z,223.45
2023-05-10T04:09:11.785Z,220.46
2023-05-10T04:10:11.877Z,218.98
2023-05-10T04:11:11.994Z,215.88
2023-05-10T04:12:11.998Z,211.90
2023-05-10T04:13:12.115Z,212.50
2023-05-10T04:14:12.636Z,216.09
2023-05-10T04:15:12.179Z,215.33
2023-05-10T04:16:12.247Z,215.52
2023-05-10T04:17:12.385Z,213.69
2023-05-10T04:18:12.349Z,214.82
2023-05-10T04:19:12.361Z,216.76
2023-05-10T04:20:12.407Z,217.86
2023-05-10T04:21:12.328Z,217.84
2023-05-10T04:22:12.393Z,217.60
2023-05-10T04:23:12.363Z,220.71
2023-05-10T04:24:13.438Z,222.50
2023-05-10T04:26:31.668Z,25.00
2023-05-10T04:27:31.612Z,25.00
2023-05-10T04:28:31.639Z,25.00
2023-05-10T04:29:31.639Z,25.00
2023-05-10T04:30:31.626Z,25.00
2023-05-10T04:31:31.648Z,26.93
2023-05-10T04:32:31.592Z,25.00
2023-05-10T04:33:31.590Z,27.34
2023-05-10T04:34:31.604Z,25.38
2023-05-10T04:35:31.558Z,21.75
2023-05-10T04:36:31.574Z,23.91
2023-05-10T04:37:31.589Z,28.29
2023-05-10T04:38:31.604Z,42.74
2023-05-10T04:39:31.542Z,72.68
2023-05-10T04:40:31.552Z,93.34
2023-05-10T04:41:31.542Z,80.77
2023-05-10T04:42:31.519Z,42.50
2023-05-10T04:43:31.533Z,46.67
2023-05-10T04:44:31.500Z,34.67
2023-05-10T04:45:31.506Z,32.81
2023-05-10T04:46:31.542Z,39.41
2023-05-10T04:47:31.514Z,36.39
2023-05-10T04:48:31.533Z,45.87
2023-05-10T04:49:31.476Z,48.88
2023-05-10T04:50:31.481Z,69.77
2023-05-10T04:51:31.476Z,92.50
2023-05-10T04:52:31.475Z,104.02
2023-05-10T04:53:31.484Z,111.16
2023-05-10T04:54:31.462Z,107.37
2023-05-10T04:55:31.446Z,98.70
2023-05-10T04:56:31.452Z,90.81
2023-05-10T04:57:31.410Z,110.69
2023-05-10T04:58:31.427Z,141.87
2023-05-10T04:59:31.422Z,152.64
2023-05-10T05:01:59.003Z,25.00
2023-05-10T05:02:51.315Z,25.00
2023-05-10T05:03:51.406Z,25.00
2023-05-10T05:04:51.229Z,25.00
2023-05-10T05:05:51.276Z,25.00
2023-05-10T05:06:53.051Z,25.00
2023-05-10T05:07:51.192Z,17.56
2023-05-10T05:08:51.249Z,9.69
2023-05-10T05:09:51.204Z,25.00
2023-05-10T05:10:51.215Z,25.00
2023-05-10T05:11:51.155Z,24.72
2023-05-10T05:12:51.196Z,22.39
2023-05-10T05:13:51.175Z,29.69
2023-05-10T05:14:51.139Z,23.42
2023-05-10T05:15:51.157Z,24.38
2023-05-10T05:16:51.150Z,27.46
2023-05-10T05:17:51.208Z,25.00
2023-05-10T05:18:51.149Z,39.54
2023-05-10T05:19:51.110Z,36.11
2023-05-10T05:20:51.110Z,40.29
2023-05-10T05:21:51.180Z,76.84
2023-05-10T05:22:51.087Z,115.63
2023-05-10T05:23:51.187Z,119.67
2023-05-10T05:24:51.101Z,131.02
2023-05-10T05:25:51.113Z,137.83
2023-05-10T05:26:51.053Z,136.15
2023-05-10T05:27:51.126Z,154.00
2023-05-10T05:28:51.124Z,145.97
2023-05-10T05:29:51.028Z,132.94
2023-05-10T05:30:51.066Z,150.22
2023-05-10T05:31:51.922Z,152.03
2023-05-10T05:32:51.283Z,152.58
2023-05-10T05:33:51.633Z,153.87
2023-05-10T05:34:51.157Z,162.54
2023-05-10T05:35:51.167Z,176.29
2023-05-10T05:36:51.123Z,187.18
2023-05-10T05:37:51.086Z,207.15
2023-05-10T05:38:51.514Z,230.00
2023-05-10T05:39:51.211Z,245.34
2023-05-10T05:40:51.101Z,250.35
2023-05-10T05:41:51.209Z,250.00
2023-05-10T05:42:51.190Z,250.00
2023-05-10T05:43:51.549Z,250.00
2023-05-10T05:44:51.195Z,247.24
2023-05-10T05:47:18.275Z,25.00
2023-05-10T05:48:10.597Z,25.00
2023-05-10T05:49:10.848Z,25.00
2023-05-10T05:50:10.560Z,25.00
2023-05-10T05:51:10.590Z,25.00
2023-05-10T05:52:10.510Z,25.00
2023-05-10T05:53:10.516Z,29.69
2023-05-10T05:54:10.761Z,1.63
2023-05-10T05:55:10.483Z,21.08
2023-05-10T05:56:10.858Z,17.52
2023-05-10T05:57:10.473Z,6.69
2023-05-10T05:58:10.493Z,6.01
2023-05-10T05:59:10.756Z,0.00
2023-05-10T06:00:10.490Z,0.00
2023-05-10T06:01:10.489Z,0.00
2023-05-10T06:02:10.447Z,0.00
2023-05-10T06:03:10.517Z,21.79
2023-05-10T06:04:10.857Z,48.53
2023-05-10T06:05:10.405Z,54.49
2023-05-10T06:06:10.440Z,51.16
2023-05-10T06:07:10.405Z,64.39
2023-05-10T06:08:10.365Z,75.62
2023-05-10T06:09:10.768Z,60.36
2023-05-10T06:10:10.370Z,44.96
2023-05-10T06:11:10.378Z,63.17
2023-05-10T06:12:10.434Z,64.55
2023-05-10T06:13:10.434Z,96.62
2023-05-10T06:14:10.386Z,119.53
2023-05-10T06:15:10.397Z,130.80
2023-05-10T06:16:10.402Z,139.06
2023-05-10T06:17:10.410Z,120.82
2023-05-10T06:18:10.558Z,130.78
2023-05-10T06:19:10.528Z,159.36
2023-05-10T06:20:10.447Z,185.88
2023-05-10T06:21:10.436Z,200.81
2023-05-10T06:22:10.440Z,189.11
2023-05-10T06:23:10.475Z,190.14
2023-05-10T06:24:10.511Z,194.56
2023-05-10T06:25:10.501Z,213.02
2023-05-10T06:26:10.491Z,237.89
2023-05-10T06:27:10.529Z,234.99
2023-05-10T06:28:10.896Z,227.59
2023-05-10T06:29:10.558Z,229.79
2023-05-10T06:30:13.330Z,229.73
2023-05-10T06:31:10.532Z,227.30
2023-05-10T06:32:10.470Z,208.73
2023-05-10T06:33:10.502Z,212.86
2023-05-10T06:34:10.529Z,212.22
2023-05-10T06:35:10.490Z,205.68
2023-05-10T06:36:10.445Z,210.64
2023-05-10T06:37:10.489Z,206.34
2023-05-10T06:38:10.464Z,209.84
2023-05-10T06:39:10.471Z,225.92
2023-05-10T06:40:10.521Z,229.09
2023-05-10T06:41:10.408Z,242.38
2023-05-10T06:42:10.432Z,249.82
2023-05-10T06:43:10.523Z,250.00
2023-05-10T06:44:10.409Z,244.19
2023-05-10T06:45:10.408Z,244.93
2023-05-10T06:46:10.440Z,250.01
2023-05-10T06:47:17.993Z,229.50
2023-05-10T06:48:10.432Z,230.21
2023-05-10T06:49:10.377Z,231.82
2023-05-10T06:50:10.419Z,233.63
2023-05-10T06:51:10.351Z,240.86
2023-05-10T06:52:10.293Z,231.88
2023-05-10T06:53:10.355Z,230.58
2023-05-10T06:54:10.380Z,211.91
2023-05-10T06:55:10.304Z,213.17
2023-05-10T06:56:10.328Z,239.14
2023-05-10T06:57:23.295Z,248.74
2023-05-10T06:58:11.328Z,249.30
2023-05-10T06:59:10.334Z,252.02
2023-05-10T07:00:10.462Z,253.07
2023-05-10T07:01:10.451Z,220.04
2023-05-10T07:02:10.308Z,164.79
2023-05-10T07:03:10.437Z,163.71
2023-05-10T07:04:10.310Z,175.20
2023-05-10T07:05:10.281Z,162.16
2023-05-10T07:06:21.692Z,143.00
2023-05-10T07:07:11.385Z,143.18
2023-05-10T07:08:10.260Z,144.67
2023-05-10T07:09:10.190Z,146.32
2023-05-10T07:10:10.206Z,116.31
2023-05-10T07:11:10.216Z,64.21
2023-05-10T07:12:12.127Z,40.77
2023-05-10T07:13:10.278Z,20.77
2023-05-10T07:14:10.190Z,28.51
2023-05-10T07:15:10.214Z,35.44
2023-05-10T07:16:10.309Z,27.18
2023-05-10T07:17:10.329Z,27.37
2023-05-10T07:18:10.332Z,25.24
2023-05-10T07:19:10.170Z,26.92
2023-05-10T07:20:10.337Z,25.00
2023-05-10T07:21:10.200Z,19.73
2023-05-10T07:22:10.151Z,27.38
2023-05-10T07:23:10.154Z,34.39
2023-05-10T07:24:10.169Z,34.69
2023-05-10T07:25:10.157Z,32.88
2023-05-10T07:26:10.149Z,28.20
2023-05-10T07:27:10.118Z,28.63
2023-05-10T07:28:10.093Z,50.45
2023-05-10T07:29:10.107Z,46.87
2023-05-10T07:30:10.126Z,42.46
2023-05-10T07:31:10.185Z,25.00
2023-05-10T07:32:10.188Z,31.77
2023-05-10T07:33:10.125Z,24.31
2023-05-10T07:34:10.104Z,20.19
2023-05-10T07:35:10.070Z,34.95
2023-05-10T07:36:10.038Z,25.00
2023-05-10T07:37:10.067Z,23.57
2023-05-10T07:38:10.050Z,26.22
2023-05-10T07:39:11.426Z,32.55
2023-05-10T07:40:10.078Z,39.31
2023-05-10T07:41:10.009Z,45.25
2023-05-10T07:42:10.018Z,33.53
2023-05-10T07:43:10.014Z,39.66
2023-05-10T07:44:10.035Z,37.74
2023-05-10T07:45:10.017Z,36.39
2023-05-10T07:46:10.050Z,24.69
2023-05-10T07:47:09.956Z,12.84
2023-05-10T07:48:09.960Z,24.97
2023-05-10T07:49:09.969Z,35.23
2023-05-10T07:50:10.320Z,40.61
2023-05-10T07:51:09.953Z,51.08
2023-05-10T07:52:09.977Z,38.78
2023-05-10T07:53:09.956Z,30.84
2023-05-10T07:54:09.946Z,46.26
2023-05-10T07:55:10.062Z,43.71
2023-05-10T07:56:10.103Z,16.43
2023-05-10T07:57:10.122Z,23.07
2023-05-10T07:58:10.199Z,30.15
2023-05-10T07:59:12.559Z,33.30
2023-05-10T08:00:10.827Z,46.26
2023-05-10T08:01:10.520Z,36.01
2023-05-10T08:02:10.597Z,35.57
2023-05-10T08:03:10.842Z,44.87
2023-05-10T08:04:10.656Z,54.57
2023-05-10T08:05:10.828Z,70.42
2023-05-10T08:06:10.742Z,70.49
2023-05-10T08:07:10.839Z,59.80
2023-05-10T08:08:10.807Z,52.04
2023-05-10T08:09:10.884Z,54.35
2023-05-10T08:10:10.892Z,64.50
2023-05-10T08:11:10.967Z,76.22
2023-05-10T08:12:11.030Z,92.59
2023-05-10T08:13:11.021Z,95.78
2023-05-10T08:14:11.126Z,108.14
2023-05-10T08:15:11.331Z,119.53
2023-05-10T08:16:11.239Z,115.71
2023-05-10T08:17:11.473Z,120.46
2023-05-10T08:18:11.291Z,77.59
2023-05-10T08:19:11.252Z,83.20
2023-05-10T08:20:11.311Z,93.92
2023-05-10T08:21:11.291Z,111.16
2023-05-10T08:22:11.710Z,119.93
2023-05-10T08:23:11.292Z,122.61
2023-05-10T08:24:11.285Z,134.40
2023-05-10T08:25:11.789Z,135.15
2023-05-10T08:26:11.302Z,136.85
2023-05-10T08:27:11.317Z,141.94
2023-05-10T08:28:12.064Z,114.04
2023-05-10T08:29:11.332Z,109.80
2023-05-10T08:30:11.831Z,97.69
2023-05-10T08:31:11.457Z,89.46
2023-05-10T08:32:11.470Z,81.44
2023-05-10T08:33:11.571Z,99.75
2023-05-10T08:34:11.568Z,115.08
2023-05-10T08:35:11.812Z,106.87
2023-05-10T08:36:11.617Z,105.76
2023-05-10T08:37:11.675Z,91.11
2023-05-10T08:38:11.683Z,113.11
2023-05-10T08:39:22.954Z,112.74
2023-05-10T08:40:12.889Z,91.64
2023-05-10T08:41:11.688Z,91.06
2023-05-10T08:42:11.729Z,92.45
2023-05-10T08:43:11.729Z,108.07
2023-05-10T08:44:11.648Z,112.63
2023-05-10T08:45:11.680Z,64.93
2023-05-10T08:46:11.885Z,55.65
2023-05-10T08:47:11.665Z,61.97
2023-05-10T08:48:11.661Z,46.51
2023-05-10T08:49:11.645Z,45.23
2023-05-10T08:50:11.617Z,37.33
2023-05-10T08:51:11.803Z,44.01
2023-05-10T08:52:11.887Z,52.69
2023-05-10T08:53:11.690Z,67.15
2023-05-10T08:54:11.745Z,49.08
2023-05-10T08:55:11.944Z,34.50
2023-05-10T08:56:11.706Z,29.58
2023-05-10T08:57:11.765Z,38.59
2023-05-10T08:58:11.887Z,62.66
2023-05-10T08:59:11.890Z,74.32
2023-05-10T09:00:11.960Z,70.76
2023-05-10T09:01:12.394Z,68.60
2023-05-10T09:02:12.047Z,78.03
2023-05-10T09:03:12.099Z,70.17
2023-05-10T09:04:12.247Z,70.27
2023-05-10T09:05:12.244Z,69.54
2023-05-10T09:06:12.319Z,46.02
2023-05-10T09:07:12.286Z,48.54
2023-05-10T09:08:12.301Z,25.00
2023-05-10T09:09:12.343Z,17.51
2023-05-10T09:10:12.450Z,22.33
2023-05-10T09:11:12.454Z,36.02
2023-05-10T09:12:12.514Z,29.08
2023-05-10T09:13:12.537Z,25.79
2023-05-10T09:14:12.532Z,33.40
2023-05-10T09:15:12.562Z,26.31
2023-05-10T09:16:21.206Z,25.00
2023-05-10T09:17:13.685Z,25.40
2023-05-10T09:18:12.721Z,29.19
2023-05-10T09:19:12.710Z,34.25
2023-05-10T09:20:12.539Z,33.10
2023-05-10T09:21:12.578Z,23.47
2023-05-10T09:22:12.521Z,26.93
2023-05-10T09:23:12.541Z,39.13
2023-05-10T09:24:12.585Z,57.72
2023-05-10T09:25:12.536Z,69.30
2023-05-10T09:26:12.860Z,68.72
2023-05-10T09:27:12.529Z,58.67
2023-05-10T09:28:12.558Z,72.62
2023-05-10T09:29:13.084Z,94.70
2023-05-10T09:30:12.490Z,99.76
2023-05-10T09:31:12.886Z,99.29
2023-05-10T09:32:13.732Z,60.96
2023-05-10T09:33:12.481Z,45.71
2023-05-10T09:34:12.488Z,137.79
2023-05-10T09:35:12.580Z,308.33
2023-05-10T09:36:12.819Z,286.69
2023-05-10T09:37:12.551Z,302.32
2023-05-10T09:38:12.545Z,305.24
2023-05-10T09:39:12.869Z,284.73
2023-05-10T09:40:12.728Z,216.57
2023-05-10T09:41:12.827Z,224.39
2023-05-10T09:42:12.760Z,148.21
2023-05-10T09:43:12.835Z,178.64
2023-05-10T09:44:12.893Z,237.00
2023-05-10T09:45:12.939Z,213.20
2023-05-10T09:46:12.969Z,195.89
2023-05-10T09:47:13.043Z,308.56
2023-05-10T09:48:13.105Z,211.01
2023-05-10T09:49:13.144Z,168.05
2023-05-10T09:50:13.208Z,175.93
2023-05-10T09:51:13.340Z,116.95
2023-05-10T09:52:13.328Z,191.35
2023-05-10T09:53:13.272Z,243.41
2023-05-10T09:54:13.328Z,237.78
2023-05-10T09:55:13.468Z,164.56
2023-05-10T09:56:13.443Z,159.01
2023-05-10T09:57:13.456Z,157.72
2023-05-10T09:58:13.463Z,145.84
2023-05-10T09:59:13.535Z,115.01
2023-05-10T10:00:13.608Z,90.68
2023-05-10T10:01:13.932Z,129.89
2023-05-10T10:02:13.561Z,115.73
2023-05-10T10:03:13.709Z,122.76
2023-05-10T10:04:13.655Z,168.43
2023-05-10T10:05:14.003Z,192.76
2023-05-10T10:06:26.367Z,187.55
2023-05-10T10:07:14.761Z,126.12
2023-05-10T10:08:13.738Z,110.52
2023-05-10T10:09:14.211Z,120.51
2023-05-10T10:10:13.703Z,100.66
2023-05-10T10:11:14.092Z,102.11
2023-05-10T10:12:14.262Z,113.52
2023-05-10T10:13:13.706Z,136.70
2023-05-10T10:14:13.688Z,115.82
2023-05-10T10:15:16.463Z,126.87
2023-05-10T10:16:13.811Z,126.10
2023-05-10T10:17:13.745Z,122.05
2023-05-10T10:18:13.682Z,154.42
2023-05-10T10:19:13.666Z,168.51
2023-05-10T10:20:13.739Z,190.36
2023-05-10T10:21:13.760Z,250.00
2023-05-10T10:22:13.693Z,266.56
2023-05-10T10:23:15.155Z,248.23
2023-05-10T10:24:13.629Z,218.28
2023-05-10T10:25:13.743Z,210.59
2023-05-10T10:26:13.909Z,252.69
2023-05-10T10:27:13.594Z,250.82
2023-05-10T10:28:13.591Z,316.22
2023-05-10T10:29:13.925Z,300.11
2023-05-10T10:30:13.597Z,309.25
2023-05-10T10:31:13.657Z,251.11
2023-05-10T10:32:13.682Z,143.77
2023-05-10T10:33:27.437Z,110.77
2023-05-10T10:34:14.603Z,110.78
2023-05-10T10:35:13.574Z,105.78
2023-05-10T10:36:13.536Z,105.58
2023-05-10T10:37:13.863Z,109.30
2023-05-10T10:38:13.556Z,93.64
2023-05-10T10:39:13.529Z,91.22
2023-05-10T10:40:13.621Z,74.91
2023-05-10T10:41:13.583Z,72.50
2023-05-10T10:42:13.837Z,72.46
2023-05-10T10:43:13.523Z,71.53
2023-05-10T10:44:13.502Z,69.32
2023-05-10T10:45:13.536Z,45.62
2023-05-10T10:46:13.542Z,23.01
2023-05-10T10:47:14.016Z,29.03
2023-05-10T10:48:13.614Z,31.77
2023-05-10T10:49:13.550Z,30.38
2023-05-10T10:50:13.631Z,32.73
2023-05-10T10:51:13.682Z,23.99
2023-05-10T10:52:13.772Z,34.16
2023-05-10T10:53:13.830Z,34.51
2023-05-10T10:54:13.711Z,32.92
2023-05-10T10:55:13.893Z,37.43
2023-05-10T10:56:13.821Z,38.75
2023-05-10T10:57:13.899Z,44.55
2023-05-10T10:58:13.925Z,51.16
2023-05-10T10:59:13.956Z,53.25
2023-05-10T11:00:14.031Z,57.75
2023-05-10T11:01:14.116Z,53.36
2023-05-10T11:02:14.135Z,43.57
2023-05-10T11:03:14.175Z,26.15
2023-05-10T11:04:14.288Z,30.52
2023-05-10T11:05:14.376Z,44.61
2023-05-10T11:06:14.295Z,32.89
2023-05-10T11:07:14.373Z,39.88
2023-05-10T11:08:14.423Z,43.70
2023-05-10T11:09:14.381Z,47.34
2023-05-10T11:10:14.564Z,44.60
2023-05-10T11:11:14.466Z,22.79
2023-05-10T11:12:14.861Z,21.18
2023-05-10T11:13:14.565Z,3.75
2023-05-10T11:14:14.602Z,13.19
2023-05-10T11:15:14.862Z,29.28
2023-05-10T11:16:14.750Z,45.72
2023-05-10T11:17:14.749Z,44.90
2023-05-10T11:18:14.699Z,53.44
2023-05-10T11:19:14.856Z,62.61
2023-05-10T11:20:14.963Z,74.22
2023-05-10T11:21:14.855Z,85.35
2023-05-10T11:22:14.870Z,78.12
2023-05-10T11:23:14.837Z,65.87
2023-05-10T11:24:14.897Z,68.19
2023-05-10T11:25:14.840Z,67.39
2023-05-10T11:26:14.858Z,62.38
2023-05-10T11:27:15.361Z,62.67
2023-05-10T11:28:14.940Z,53.88
2023-05-10T11:29:14.943Z,62.01
2023-05-10T11:30:15.346Z,72.20
2023-05-10T11:31:14.974Z,64.30
2023-05-10T11:32:15.357Z,60.50
2023-05-10T11:33:14.956Z,76.36
2023-05-10T11:34:14.955Z,84.57
2023-05-10T11:35:14.970Z,90.85
2023-05-10T11:36:14.988Z,80.39
2023-05-10T11:37:15.470Z,77.99
2023-05-10T11:38:14.985Z,62.32
2023-05-10T11:39:15.008Z,57.11
2023-05-10T11:40:15.251Z,72.53
2023-05-10T11:41:15.057Z,84.33
2023-05-10T11:42:15.061Z,95.04
2023-05-10T11:43:15.378Z,102.89
2023-05-10T11:44:15.097Z,91.39
2023-05-10T11:45:15.132Z,76.52
2023-05-10T11:46:15.186Z,84.74
2023-05-10T11:47:15.107Z,82.35
2023-05-10T11:48:15.178Z,84.22
2023-05-10T11:49:15.168Z,82.69
2023-05-10T11:50:15.425Z,85.24
2023-05-10T11:51:15.182Z,93.30
2023-05-10T11:52:15.202Z,79.73
2023-05-10T11:53:15.173Z,88.35
2023-05-10T11:54:15.206Z,84.36
2023-05-10T11:55:15.197Z,95.29
2023-05-10T11:56:15.236Z,101.14
2023-05-10T11:57:15.217Z,91.50
2023-05-10T11:58:15.334Z,82.11
2023-05-10T11:59:15.266Z,81.21
2023-05-10T12:00:15.553Z,84.85
2023-05-10T12:01:15.270Z,62.98
2023-05-10T12:02:15.440Z,58.61
2023-05-10T12:03:15.444Z,69.02
2023-05-10T12:04:15.449Z,85.31
2023-05-10T12:05:15.377Z,98.40
2023-05-10T12:06:15.378Z,101.26
2023-05-10T12:07:15.453Z,104.24
2023-05-10T12:08:15.481Z,111.27
2023-05-10T12:09:15.501Z,106.74
2023-05-10T12:10:15.980Z,113.69
2023-05-10T12:11:15.551Z,125.37
2023-05-10T12:12:15.612Z,119.46
2023-05-10T12:13:15.656Z,124.99
2023-05-10T12:14:15.684Z,120.67
2023-05-10T12:15:15.780Z,113.70
2023-05-10T12:16:15.838Z,102.94
2023-05-10T12:17:15.950Z,102.95
2023-05-10T12:18:16.075Z,102.65
2023-05-10T12:19:15.903Z,95.81
2023-05-10T12:20:16.180Z,78.06
2023-05-10T12:21:15.927Z,66.65
2023-05-10T12:22:15.945Z,64.26
2023-05-10T12:23:15.924Z,67.17
2023-05-10T12:24:15.952Z,73.11
2023-05-10T12:25:15.912Z,85.01
2023-05-10T12:26:15.923Z,98.24
2023-05-10T12:27:15.963Z,102.38
2023-05-10T12:28:15.984Z,100.25
2023-05-10T12:29:15.989Z,91.85
2023-05-10T12:30:16.209Z,97.48
2023-05-10T12:31:16.109Z,115.16
2023-05-10T12:32:16.114Z,125.68
2023-05-10T12:33:16.252Z,127.14
2023-05-10T12:34:16.483Z,117.43
2023-05-10T12:35:16.097Z,116.56
2023-05-10T12:36:16.148Z,119.65
2023-05-10T12:37:16.141Z,122.78
2023-05-10T12:38:16.139Z,127.42
2023-05-10T12:39:16.173Z,126.40
2023-05-10T12:40:16.488Z,119.02
2023-05-10T12:41:16.342Z,120.03
2023-05-10T12:42:16.344Z,116.07